Overview Statistics Trail Chart Weather Telemetry Raw packets
 

This is the latest recevied packets stored in our database for station/object DB0MMR-12. If no packets are shown the sender has not sent any packets the latest 24 hours.

If you compare the raw packets with similar data from other websites it may differ (especially the path), the reason is that we are not collecting packets from the same APRS-IS servers. Each APRS-IS server performes duplicate filtering, and which packet that is considered to be a duplicate may differ depending on which APRS-IS server you receive your data from.

<< 1 2 3 4 >>

1788565037: DB0MMR-12>APRSGW,TCPIP*,qAR,DB0MMR-12:T#245,956.0,27.4,40.0,595,22.9,00000000

1788565037: DB0MMR-12>APRSGW,TCPIP*,qAR,DB0MMR-12:!4808.36N/01240.12ErDB0MMR Schrank#Repeater WX u.GW/A=001706/N6

1788563207: DB0MMR-12>APRSGW,TCPIP*,qAR,DB0MMR-12:T#244,955.8,27.3,39.5,614,23.1,00000000

1788563207: DB0MMR-12>APRSGW,TCPIP*,qAR,DB0MMR-12:!4808.36N/01240.12ErDB0MMR Schrank#Repeater WX u.GW/A=001706/N6

1788561377: DB0MMR-12>APRSGW,TCPIP*,qAR,DB0MMR-12:!4808.36N/01240.12ErDB0MMR Schrank#Repeater WX u.GW/A=001706/N6

1788561377: DB0MMR-12>APRSGW,TCPIP*,qAR,DB0MMR-12:T#243,955.8,27.0,39.5,622,22.9,00000000

1788559547: DB0MMR-12>APRSGW,TCPIP*,qAR,DB0MMR-12:T#242,955.5,27.0,39.0,622,22.0,00000000

1788559547: DB0MMR-12>APRSGW,TCPIP*,qAR,DB0MMR-12:!4808.36N/01240.12ErDB0MMR Schrank#Repeater WX u.GW/A=001706/N6

1788557717: DB0MMR-12>APRSGW,TCPIP*,qAR,DB0MMR-12:T#241,955.5,27.0,38.3,624,22.2,00000000

1788557717: DB0MMR-12>APRSGW,TCPIP*,qAR,DB0MMR-12::DB0MMR-12:PARM.Press,Temp.in,Hum,eGAS,Temp.out,track,-,-,-,-,-,-,-

1788557717: DB0MMR-12>APRSGW,TCPIP*,qAR,DB0MMR-12::DB0MMR-12:UNIT.hPa,C deg,%,-,C deg,Y/N,O/N,O/N,O/N,O/N,O/N,O/N,O/N

1788557717: DB0MMR-12>APRSGW,TCPIP*,qAR,DB0MMR-12::DB0MMR-12:EQNS.0,1,0,0,1,0,0,1,0,0,1,0,0,1,0

1788557717: DB0MMR-12>APRSGW,TCPIP*,qAR,DB0MMR-12:!4808.36N/01240.12ErDB0MMR Schrank#Repeater WX u.GW/A=001706/N6

1788555887: DB0MMR-12>APRSGW,TCPIP*,qAR,DB0MMR-12:T#240,955.3,27.3,38.2,624,22.4,00000000

1788555887: DB0MMR-12>APRSGW,TCPIP*,qAR,DB0MMR-12:!4808.36N/01240.12ErDB0MMR Schrank#Repeater WX u.GW/A=001706/N7

1788554057: DB0MMR-12>APRSGW,TCPIP*,qAR,DB0MMR-12:T#239,955.3,27.8,37.0,659,23.2,00000000

1788554057: DB0MMR-12>APRSGW,TCPIP*,qAR,DB0MMR-12:!4808.36N/01240.12ErDB0MMR Schrank#Repeater WX u.GW/A=001706/N7

1788552227: DB0MMR-12>APRSGW,TCPIP*,qAR,DB0MMR-12:T#238,955.2,27.6,36.8,670,23.6,00000000

1788552227: DB0MMR-12>APRSGW,TCPIP*,qAR,DB0MMR-12:!4808.36N/01240.12ErDB0MMR Schrank#Repeater WX u.GW/A=001706/N7

1788550397: DB0MMR-12>APRSGW,TCPIP*,qAR,DB0MMR-12:T#237,955.2,27.6,36.5,695,23.8,00000000

1788550397: DB0MMR-12>APRSGW,TCPIP*,qAR,DB0MMR-12:!4808.36N/01240.12ErDB0MMR Schrank#Repeater WX u.GW/A=001706/N7

1788548566: DB0MMR-12>APRSGW,TCPIP*,qAR,DB0MMR-12:T#236,955.0,27.7,36.0,676,23.4,00000000

1788548566: DB0MMR-12>APRSGW,TCPIP*,qAR,DB0MMR-12:!4808.36N/01240.12ErDB0MMR Schrank#Repeater WX u.GW/A=001706/N7

1788546736: DB0MMR-12>APRSGW,TCPIP*,qAR,DB0MMR-12:T#235,954.8,28.4,34.3,676,23.8,00000000

1788546736: DB0MMR-12>APRSGW,TCPIP*,qAR,DB0MMR-12:!4808.36N/01240.12ErDB0MMR Schrank#Repeater WX u.GW/A=001706/N6